sensor_id;sensor_type;location;lat;lon;timestamp;P1;durP1;ratioP1;P2;durP2;ratioP2
25299;SDS011;13241;51.208;4.432;2024-03-08T00:00:06;24.33;;;10.10;;
25299;SDS011;13241;51.208;4.432;2024-03-08T00:02:39;26.27;;;9.93;;
25299;SDS011;13241;51.208;4.432;2024-03-08T00:05:07;29.02;;;9.13;;
25299;SDS011;13241;51.208;4.432;2024-03-08T00:07:38;18.73;;;9.18;;
25299;SDS011;13241;51.208;4.432;2024-03-08T00:10:06;21.40;;;8.73;;
25299;SDS011;13241;51.208;4.432;2024-03-08T00:12:37;20.92;;;8.95;;
25299;SDS011;13241;51.208;4.432;2024-03-08T00:15:05;23.02;;;10.52;;
25299;SDS011;13241;51.208;4.432;2024-03-08T00:17:33;19.48;;;9.57;;
25299;SDS011;13241;51.208;4.432;2024-03-08T00:20:00;25.38;;;10.15;;
25299;SDS011;13241;51.208;4.432;2024-03-08T00:22:29;30.05;;;10.15;;
25299;SDS011;13241;51.208;4.432;2024-03-08T00:24:57;20.58;;;9.65;;
25299;SDS011;13241;51.208;4.432;2024-03-08T00:27:24;27.40;;;9.10;;
25299;SDS011;13241;51.208;4.432;2024-03-08T00:29:52;26.83;;;10.10;;
25299;SDS011;13241;51.208;4.432;2024-03-08T00:32:19;18.30;;;7.75;;
25299;SDS011;13241;51.208;4.432;2024-03-08T00:34:47;17.13;;;8.13;;
25299;SDS011;13241;51.208;4.432;2024-03-08T00:37:14;22.38;;;10.23;;
25299;SDS011;13241;51.208;4.432;2024-03-08T00:39:42;25.02;;;9.80;;
25299;SDS011;13241;51.208;4.432;2024-03-08T00:42:09;23.88;;;8.43;;
25299;SDS011;13241;51.208;4.432;2024-03-08T00:44:37;21.52;;;9.25;;
25299;SDS011;13241;51.208;4.432;2024-03-08T00:47:04;15.95;;;8.80;;
25299;SDS011;13241;51.208;4.432;2024-03-08T00:49:32;20.80;;;9.40;;
25299;SDS011;13241;51.208;4.432;2024-03-08T00:51:59;26.40;;;10.10;;
25299;SDS011;13241;51.208;4.432;2024-03-08T00:54:27;16.55;;;6.68;;
25299;SDS011;13241;51.208;4.432;2024-03-08T00:56:54;21.23;;;8.45;;
25299;SDS011;13241;51.208;4.432;2024-03-08T00:59:21;19.25;;;8.52;;
25299;SDS011;13241;51.208;4.432;2024-03-08T01:01:49;17.80;;;8.65;;
25299;SDS011;13241;51.208;4.432;2024-03-08T01:04:16;22.90;;;8.88;;
25299;SDS011;13241;51.208;4.432;2024-03-08T01:06:45;16.15;;;8.35;;
25299;SDS011;13241;51.208;4.432;2024-03-08T01:09:13;21.15;;;8.35;;
25299;SDS011;13241;51.208;4.432;2024-03-08T01:11:41;21.13;;;8.38;;
25299;SDS011;13241;51.208;4.432;2024-03-08T01:14:09;21.77;;;8.55;;
25299;SDS011;13241;51.208;4.432;2024-03-08T01:16:36;23.30;;;9.93;;
25299;SDS011;13241;51.208;4.432;2024-03-08T01:19:04;25.90;;;7.85;;
25299;SDS011;13241;51.208;4.432;2024-03-08T01:21:32;24.20;;;8.40;;
25299;SDS011;13241;51.208;4.432;2024-03-08T01:23:59;17.63;;;8.20;;
25299;SDS011;13241;51.208;4.432;2024-03-08T01:26:27;19.88;;;7.82;;
25299;SDS011;13241;51.208;4.432;2024-03-08T01:28:55;13.05;;;7.10;;
25299;SDS011;13241;51.208;4.432;2024-03-08T01:31:22;17.08;;;7.90;;
25299;SDS011;13241;51.208;4.432;2024-03-08T01:33:49;18.50;;;9.27;;
25299;SDS011;13241;51.208;4.432;2024-03-08T01:36:17;20.90;;;8.68;;
25299;SDS011;13241;51.208;4.432;2024-03-08T01:38:45;15.15;;;7.78;;
25299;SDS011;13241;51.208;4.432;2024-03-08T01:41:13;18.60;;;8.35;;
25299;SDS011;13241;51.208;4.432;2024-03-08T01:43:42;20.88;;;9.60;;
25299;SDS011;13241;51.208;4.432;2024-03-08T01:46:10;33.58;;;9.70;;
25299;SDS011;13241;51.208;4.432;2024-03-08T01:48:39;14.05;;;7.10;;
25299;SDS011;13241;51.208;4.432;2024-03-08T01:51:07;16.20;;;7.78;;
25299;SDS011;13241;51.208;4.432;2024-03-08T01:53:35;14.98;;;8.13;;
25299;SDS011;13241;51.208;4.432;2024-03-08T01:56:03;20.73;;;8.07;;
25299;SDS011;13241;51.208;4.432;2024-03-08T01:58:32;27.83;;;8.95;;
25299;SDS011;13241;51.208;4.432;2024-03-08T02:01:00;18.08;;;8.30;;
25299;SDS011;13241;51.208;4.432;2024-03-08T02:03:30;19.38;;;7.68;;
25299;SDS011;13241;51.208;4.432;2024-03-08T02:05:58;16.10;;;8.73;;
25299;SDS011;13241;51.208;4.432;2024-03-08T02:08:25;14.88;;;7.03;;
25299;SDS011;13241;51.208;4.432;2024-03-08T02:10:52;15.27;;;7.75;;
25299;SDS011;13241;51.208;4.432;2024-03-08T02:13:20;14.93;;;7.55;;
25299;SDS011;13241;51.208;4.432;2024-03-08T02:18:20;16.40;;;7.13;;
25299;SDS011;13241;51.208;4.432;2024-03-08T02:20:55;16.05;;;7.03;;
25299;SDS011;13241;51.208;4.432;2024-03-08T02:23:23;16.83;;;7.40;;
25299;SDS011;13241;51.208;4.432;2024-03-08T02:25:54;16.23;;;7.60;;
25299;SDS011;13241;51.208;4.432;2024-03-08T02:28:22;19.60;;;7.68;;
25299;SDS011;13241;51.208;4.432;2024-03-08T02:30:51;17.67;;;8.63;;
25299;SDS011;13241;51.208;4.432;2024-03-08T02:33:23;15.30;;;7.40;;
25299;SDS011;13241;51.208;4.432;2024-03-08T02:35:51;19.05;;;9.20;;
25299;SDS011;13241;51.208;4.432;2024-03-08T02:38:19;18.08;;;8.15;;
25299;SDS011;13241;51.208;4.432;2024-03-08T02:40:48;15.27;;;7.38;;
25299;SDS011;13241;51.208;4.432;2024-03-08T02:43:16;11.60;;;7.10;;
25299;SDS011;13241;51.208;4.432;2024-03-08T02:45:48;15.38;;;6.28;;
25299;SDS011;13241;51.208;4.432;2024-03-08T02:48:16;14.13;;;6.82;;
25299;SDS011;13241;51.208;4.432;2024-03-08T02:50:44;13.50;;;7.70;;
25299;SDS011;13241;51.208;4.432;2024-03-08T02:53:12;17.33;;;8.45;;
25299;SDS011;13241;51.208;4.432;2024-03-08T02:55:40;12.80;;;6.90;;
25299;SDS011;13241;51.208;4.432;2024-03-08T02:58:08;20.80;;;9.02;;
25299;SDS011;13241;51.208;4.432;2024-03-08T03:00:37;16.00;;;8.05;;
25299;SDS011;13241;51.208;4.432;2024-03-08T03:03:06;15.77;;;8.10;;
25299;SDS011;13241;51.208;4.432;2024-03-08T03:05:34;14.13;;;7.82;;
25299;SDS011;13241;51.208;4.432;2024-03-08T03:08:02;20.88;;;8.52;;
25299;SDS011;13241;51.208;4.432;2024-03-08T03:10:37;23.67;;;6.30;;
25299;SDS011;13241;51.208;4.432;2024-03-08T03:13:04;12.93;;;6.88;;
25299;SDS011;13241;51.208;4.432;2024-03-08T03:15:32;15.70;;;7.18;;
25299;SDS011;13241;51.208;4.432;2024-03-08T03:18:03;13.07;;;7.47;;
25299;SDS011;13241;51.208;4.432;2024-03-08T03:20:34;13.82;;;6.72;;
25299;SDS011;13241;51.208;4.432;2024-03-08T03:23:08;20.17;;;8.90;;
25299;SDS011;13241;51.208;4.432;2024-03-08T03:25:40;9.40;;;6.75;;
25299;SDS011;13241;51.208;4.432;2024-03-08T03:28:08;19.48;;;6.80;;
25299;SDS011;13241;51.208;4.432;2024-03-08T03:30:37;17.50;;;8.30;;
25299;SDS011;13241;51.208;4.432;2024-03-08T03:33:05;21.80;;;8.82;;
25299;SDS011;13241;51.208;4.432;2024-03-08T03:35:37;13.43;;;7.07;;
25299;SDS011;13241;51.208;4.432;2024-03-08T03:38:05;12.60;;;6.32;;
25299;SDS011;13241;51.208;4.432;2024-03-08T03:40:35;13.13;;;6.35;;
25299;SDS011;13241;51.208;4.432;2024-03-08T03:43:02;13.10;;;6.82;;
25299;SDS011;13241;51.208;4.432;2024-03-08T03:45:30;12.38;;;6.93;;
25299;SDS011;13241;51.208;4.432;2024-03-08T03:48:06;12.35;;;7.07;;
25299;SDS011;13241;51.208;4.432;2024-03-08T03:50:36;14.48;;;7.30;;
25299;SDS011;13241;51.208;4.432;2024-03-08T03:53:04;17.77;;;7.13;;
25299;SDS011;13241;51.208;4.432;2024-03-08T03:55:35;13.05;;;7.65;;
25299;SDS011;13241;51.208;4.432;2024-03-08T03:58:05;16.38;;;7.72;;
25299;SDS011;13241;51.208;4.432;2024-03-08T04:00:32;18.77;;;7.40;;
25299;SDS011;13241;51.208;4.432;2024-03-08T04:02:59;16.52;;;8.23;;
25299;SDS011;13241;51.208;4.432;2024-03-08T04:05:27;10.82;;;6.53;;
25299;SDS011;13241;51.208;4.432;2024-03-08T04:07:55;10.27;;;5.90;;
25299;SDS011;13241;51.208;4.432;2024-03-08T04:10:23;9.57;;;5.75;;
25299;SDS011;13241;51.208;4.432;2024-03-08T04:12:51;18.38;;;7.25;;
25299;SDS011;13241;51.208;4.432;2024-03-08T04:15:19;19.95;;;7.50;;
25299;SDS011;13241;51.208;4.432;2024-03-08T04:17:47;14.25;;;7.63;;
25299;SDS011;13241;51.208;4.432;2024-03-08T04:20:14;14.43;;;6.55;;
25299;SDS011;13241;51.208;4.432;2024-03-08T04:22:44;13.40;;;7.65;;
25299;SDS011;13241;51.208;4.432;2024-03-08T04:25:15;13.27;;;7.35;;
25299;SDS011;13241;51.208;4.432;2024-03-08T04:27:43;18.92;;;7.50;;
25299;SDS011;13241;51.208;4.432;2024-03-08T04:30:11;16.05;;;7.53;;
25299;SDS011;13241;51.208;4.432;2024-03-08T04:32:39;11.23;;;6.00;;
25299;SDS011;13241;51.208;4.432;2024-03-08T04:35:07;14.32;;;7.22;;
25299;SDS011;13241;51.208;4.432;2024-03-08T04:37:35;15.85;;;7.60;;
25299;SDS011;13241;51.208;4.432;2024-03-08T04:40:02;15.93;;;6.85;;
25299;SDS011;13241;51.208;4.432;2024-03-08T04:42:30;24.65;;;8.52;;
25299;SDS011;13241;51.208;4.432;2024-03-08T04:44:59;10.88;;;7.07;;
25299;SDS011;13241;51.208;4.432;2024-03-08T04:47:27;14.20;;;8.00;;
25299;SDS011;13241;51.208;4.432;2024-03-08T04:49:54;12.43;;;6.45;;
25299;SDS011;13241;51.208;4.432;2024-03-08T04:52:23;13.15;;;7.00;;
25299;SDS011;13241;51.208;4.432;2024-03-08T04:54:50;14.80;;;7.55;;
25299;SDS011;13241;51.208;4.432;2024-03-08T04:57:17;10.27;;;5.57;;
25299;SDS011;13241;51.208;4.432;2024-03-08T04:59:46;15.38;;;6.72;;
25299;SDS011;13241;51.208;4.432;2024-03-08T05:02:13;11.07;;;6.22;;
25299;SDS011;13241;51.208;4.432;2024-03-08T05:04:41;12.73;;;7.13;;
25299;SDS011;13241;51.208;4.432;2024-03-08T05:07:09;17.63;;;8.15;;
25299;SDS011;13241;51.208;4.432;2024-03-08T05:09:36;12.05;;;7.55;;
25299;SDS011;13241;51.208;4.432;2024-03-08T05:12:04;12.88;;;7.00;;
25299;SDS011;13241;51.208;4.432;2024-03-08T05:14:32;16.38;;;6.72;;
25299;SDS011;13241;51.208;4.432;2024-03-08T05:17:01;16.75;;;6.88;;
25299;SDS011;13241;51.208;4.432;2024-03-08T05:19:29;13.52;;;6.90;;
25299;SDS011;13241;51.208;4.432;2024-03-08T05:22:00;20.40;;;6.03;;
25299;SDS011;13241;51.208;4.432;2024-03-08T05:24:29;16.88;;;7.35;;
25299;SDS011;13241;51.208;4.432;2024-03-08T05:26:57;15.57;;;8.93;;
25299;SDS011;13241;51.208;4.432;2024-03-08T05:29:26;14.63;;;7.65;;
25299;SDS011;13241;51.208;4.432;2024-03-08T05:31:54;13.13;;;7.70;;
25299;SDS011;13241;51.208;4.432;2024-03-08T05:34:21;16.17;;;8.20;;
25299;SDS011;13241;51.208;4.432;2024-03-08T05:36:49;23.15;;;8.57;;
25299;SDS011;13241;51.208;4.432;2024-03-08T05:39:17;8.85;;;6.75;;
25299;SDS011;13241;51.208;4.432;2024-03-08T05:41:45;15.00;;;5.97;;
25299;SDS011;13241;51.208;4.432;2024-03-08T05:44:12;18.08;;;9.02;;
25299;SDS011;13241;51.208;4.432;2024-03-08T05:46:40;20.88;;;7.05;;
25299;SDS011;13241;51.208;4.432;2024-03-08T05:49:07;17.33;;;7.97;;
25299;SDS011;13241;51.208;4.432;2024-03-08T05:51:37;14.10;;;5.90;;
25299;SDS011;13241;51.208;4.432;2024-03-08T05:54:07;12.05;;;6.18;;
25299;SDS011;13241;51.208;4.432;2024-03-08T05:56:37;11.90;;;6.95;;
25299;SDS011;13241;51.208;4.432;2024-03-08T05:59:04;11.00;;;6.13;;
25299;SDS011;13241;51.208;4.432;2024-03-08T06:01:31;14.63;;;6.93;;
25299;SDS011;13241;51.208;4.432;2024-03-08T06:04:02;14.73;;;8.02;;
25299;SDS011;13241;51.208;4.432;2024-03-08T06:06:30;16.45;;;7.20;;
25299;SDS011;13241;51.208;4.432;2024-03-08T06:08:57;14.60;;;7.68;;
25299;SDS011;13241;51.208;4.432;2024-03-08T06:11:25;12.38;;;6.38;;
25299;SDS011;13241;51.208;4.432;2024-03-08T06:13:54;16.10;;;6.80;;
25299;SDS011;13241;51.208;4.432;2024-03-08T06:16:26;13.45;;;6.43;;
25299;SDS011;13241;51.208;4.432;2024-03-08T06:18:56;12.93;;;7.00;;
25299;SDS011;13241;51.208;4.432;2024-03-08T06:21:24;14.40;;;8.00;;
25299;SDS011;13241;51.208;4.432;2024-03-08T06:23:54;13.73;;;5.50;;
25299;SDS011;13241;51.208;4.432;2024-03-08T06:26:24;16.67;;;8.25;;
25299;SDS011;13241;51.208;4.432;2024-03-08T06:28:57;10.40;;;6.80;;
25299;SDS011;13241;51.208;4.432;2024-03-08T06:31:24;11.50;;;6.45;;
25299;SDS011;13241;51.208;4.432;2024-03-08T06:33:52;12.85;;;7.32;;
25299;SDS011;13241;51.208;4.432;2024-03-08T06:36:24;17.15;;;7.60;;
25299;SDS011;13241;51.208;4.432;2024-03-08T06:38:51;15.38;;;7.55;;
25299;SDS011;13241;51.208;4.432;2024-03-08T06:41:19;13.48;;;5.20;;
25299;SDS011;13241;51.208;4.432;2024-03-08T06:43:47;16.00;;;6.15;;
25299;SDS011;13241;51.208;4.432;2024-03-08T06:46:17;14.93;;;6.38;;
25299;SDS011;13241;51.208;4.432;2024-03-08T06:48:47;14.23;;;7.38;;
25299;SDS011;13241;51.208;4.432;2024-03-08T06:51:16;13.70;;;6.85;;
25299;SDS011;13241;51.208;4.432;2024-03-08T06:53:44;18.25;;;7.78;;
25299;SDS011;13241;51.208;4.432;2024-03-08T06:56:11;12.88;;;7.03;;
25299;SDS011;13241;51.208;4.432;2024-03-08T06:58:38;18.58;;;6.68;;
25299;SDS011;13241;51.208;4.432;2024-03-08T07:01:06;20.75;;;8.55;;
25299;SDS011;13241;51.208;4.432;2024-03-08T07:03:43;13.27;;;6.25;;
25299;SDS011;13241;51.208;4.432;2024-03-08T07:06:11;17.38;;;7.25;;
25299;SDS011;13241;51.208;4.432;2024-03-08T07:08:39;15.52;;;6.90;;
25299;SDS011;13241;51.208;4.432;2024-03-08T07:11:06;15.73;;;6.97;;
25299;SDS011;13241;51.208;4.432;2024-03-08T07:13:34;13.75;;;6.30;;
25299;SDS011;13241;51.208;4.432;2024-03-08T07:16:01;16.23;;;7.43;;
25299;SDS011;13241;51.208;4.432;2024-03-08T07:18:29;14.25;;;6.63;;
25299;SDS011;13241;51.208;4.432;2024-03-08T07:20:57;15.18;;;7.43;;
25299;SDS011;13241;51.208;4.432;2024-03-08T07:23:25;14.02;;;8.82;;
25299;SDS011;13241;51.208;4.432;2024-03-08T07:26:14;15.10;;;7.65;;
25299;SDS011;13241;51.208;4.432;2024-03-08T07:28:42;12.07;;;8.55;;
25299;SDS011;13241;51.208;4.432;2024-03-08T07:31:10;12.10;;;7.15;;
25299;SDS011;13241;51.208;4.432;2024-03-08T07:33:49;14.23;;;7.75;;
25299;SDS011;13241;51.208;4.432;2024-03-08T07:36:17;16.98;;;6.97;;
25299;SDS011;13241;51.208;4.432;2024-03-08T07:38:44;11.23;;;7.15;;
25299;SDS011;13241;51.208;4.432;2024-03-08T07:41:14;12.60;;;6.63;;
25299;SDS011;13241;51.208;4.432;2024-03-08T07:43:42;13.27;;;6.35;;
25299;SDS011;13241;51.208;4.432;2024-03-08T07:46:10;9.10;;;5.93;;
25299;SDS011;13241;51.208;4.432;2024-03-08T07:48:39;18.17;;;8.65;;
25299;SDS011;13241;51.208;4.432;2024-03-08T07:51:07;12.23;;;6.70;;
25299;SDS011;13241;51.208;4.432;2024-03-08T07:53:36;15.57;;;7.00;;
25299;SDS011;13241;51.208;4.432;2024-03-08T07:56:04;13.38;;;7.03;;
25299;SDS011;13241;51.208;4.432;2024-03-08T07:58:32;9.88;;;6.07;;
25299;SDS011;13241;51.208;4.432;2024-03-08T08:01:01;14.88;;;6.78;;
25299;SDS011;13241;51.208;4.432;2024-03-08T08:03:29;13.55;;;7.10;;
25299;SDS011;13241;51.208;4.432;2024-03-08T08:05:56;13.15;;;6.80;;
25299;SDS011;13241;51.208;4.432;2024-03-08T08:08:23;16.77;;;7.00;;
25299;SDS011;13241;51.208;4.432;2024-03-08T08:10:52;17.23;;;7.65;;
25299;SDS011;13241;51.208;4.432;2024-03-08T08:13:20;22.00;;;7.35;;
25299;SDS011;13241;51.208;4.432;2024-03-08T08:15:49;20.15;;;7.72;;
25299;SDS011;13241;51.208;4.432;2024-03-08T08:18:16;14.27;;;7.43;;
25299;SDS011;13241;51.208;4.432;2024-03-08T08:20:46;16.55;;;7.82;;
25299;SDS011;13241;51.208;4.432;2024-03-08T08:23:13;15.32;;;6.95;;
25299;SDS011;13241;51.208;4.432;2024-03-08T08:25:41;10.25;;;5.78;;
25299;SDS011;13241;51.208;4.432;2024-03-08T08:28:09;13.80;;;6.65;;
25299;SDS011;13241;51.208;4.432;2024-03-08T08:30:36;19.83;;;8.57;;
25299;SDS011;13241;51.208;4.432;2024-03-08T08:33:04;12.07;;;6.13;;
25299;SDS011;13241;51.208;4.432;2024-03-08T08:35:32;10.10;;;6.03;;
25299;SDS011;13241;51.208;4.432;2024-03-08T08:37:59;18.30;;;7.22;;
25299;SDS011;13241;51.208;4.432;2024-03-08T08:40:27;11.38;;;6.38;;
25299;SDS011;13241;51.208;4.432;2024-03-08T08:42:57;14.50;;;5.65;;
25299;SDS011;13241;51.208;4.432;2024-03-08T08:45:24;11.13;;;6.03;;
25299;SDS011;13241;51.208;4.432;2024-03-08T08:47:52;10.88;;;5.85;;
25299;SDS011;13241;51.208;4.432;2024-03-08T08:50:21;13.88;;;6.70;;
25299;SDS011;13241;51.208;4.432;2024-03-08T08:52:52;26.30;;;5.97;;
25299;SDS011;13241;51.208;4.432;2024-03-08T08:55:20;13.57;;;6.35;;
25299;SDS011;13241;51.208;4.432;2024-03-08T08:57:51;20.15;;;7.47;;
25299;SDS011;13241;51.208;4.432;2024-03-08T09:00:19;12.35;;;6.90;;
25299;SDS011;13241;51.208;4.432;2024-03-08T09:02:47;10.63;;;4.88;;
25299;SDS011;13241;51.208;4.432;2024-03-08T09:05:15;12.50;;;5.80;;
25299;SDS011;13241;51.208;4.432;2024-03-08T09:07:46;15.85;;;8.32;;
25299;SDS011;13241;51.208;4.432;2024-03-08T09:10:13;12.23;;;6.63;;
25299;SDS011;13241;51.208;4.432;2024-03-08T09:12:43;11.90;;;7.07;;
25299;SDS011;13241;51.208;4.432;2024-03-08T09:15:11;15.45;;;6.78;;
25299;SDS011;13241;51.208;4.432;2024-03-08T09:17:39;15.65;;;7.10;;
25299;SDS011;13241;51.208;4.432;2024-03-08T09:20:08;14.02;;;6.28;;
25299;SDS011;13241;51.208;4.432;2024-03-08T09:22:47;10.70;;;5.28;;
25299;SDS011;13241;51.208;4.432;2024-03-08T09:25:14;12.18;;;6.40;;
25299;SDS011;13241;51.208;4.432;2024-03-08T09:27:42;10.60;;;5.80;;
25299;SDS011;13241;51.208;4.432;2024-03-08T09:30:10;12.52;;;6.03;;
25299;SDS011;13241;51.208;4.432;2024-03-08T09:32:39;15.55;;;7.75;;
25299;SDS011;13241;51.208;4.432;2024-03-08T09:35:08;13.95;;;6.15;;
25299;SDS011;13241;51.208;4.432;2024-03-08T09:37:35;16.30;;;6.43;;
25299;SDS011;13241;51.208;4.432;2024-03-08T09:40:04;14.13;;;5.63;;
25299;SDS011;13241;51.208;4.432;2024-03-08T09:42:36;18.63;;;6.82;;
25299;SDS011;13241;51.208;4.432;2024-03-08T09:45:08;10.93;;;5.97;;
25299;SDS011;13241;51.208;4.432;2024-03-08T09:47:43;12.35;;;5.88;;
25299;SDS011;13241;51.208;4.432;2024-03-08T09:50:11;14.13;;;6.95;;
25299;SDS011;13241;51.208;4.432;2024-03-08T09:52:47;17.60;;;6.90;;
25299;SDS011;13241;51.208;4.432;2024-03-08T09:55:15;11.98;;;6.10;;
25299;SDS011;13241;51.208;4.432;2024-03-08T09:57:44;9.40;;;5.85;;
25299;SDS011;13241;51.208;4.432;2024-03-08T10:00:31;13.10;;;7.13;;
25299;SDS011;13241;51.208;4.432;2024-03-08T10:03:02;18.23;;;6.53;;
25299;SDS011;13241;51.208;4.432;2024-03-08T10:05:30;13.50;;;6.07;;
25299;SDS011;13241;51.208;4.432;2024-03-08T10:08:01;13.88;;;5.95;;
25299;SDS011;13241;51.208;4.432;2024-03-08T10:10:28;16.33;;;5.70;;
25299;SDS011;13241;51.208;4.432;2024-03-08T10:12:56;15.77;;;7.03;;
25299;SDS011;13241;51.208;4.432;2024-03-08T10:15:23;13.20;;;5.55;;
25299;SDS011;13241;51.208;4.432;2024-03-08T10:17:51;12.90;;;6.72;;
25299;SDS011;13241;51.208;4.432;2024-03-08T10:20:19;14.07;;;6.30;;
25299;SDS011;13241;51.208;4.432;2024-03-08T10:22:47;12.10;;;7.32;;
25299;SDS011;13241;51.208;4.432;2024-03-08T10:25:32;12.60;;;6.22;;
25299;SDS011;13241;51.208;4.432;2024-03-08T10:28:02;13.20;;;6.65;;
25299;SDS011;13241;51.208;4.432;2024-03-08T10:30:31;16.00;;;6.93;;
25299;SDS011;13241;51.208;4.432;2024-03-08T10:32:58;13.80;;;6.30;;
25299;SDS011;13241;51.208;4.432;2024-03-08T10:35:26;11.48;;;6.28;;
25299;SDS011;13241;51.208;4.432;2024-03-08T10:37:53;13.23;;;6.05;;
25299;SDS011;13241;51.208;4.432;2024-03-08T10:40:27;17.77;;;7.57;;
25299;SDS011;13241;51.208;4.432;2024-03-08T10:42:58;13.80;;;7.22;;
25299;SDS011;13241;51.208;4.432;2024-03-08T10:45:35;10.70;;;5.95;;
25299;SDS011;13241;51.208;4.432;2024-03-08T10:48:04;15.00;;;6.97;;
25299;SDS011;13241;51.208;4.432;2024-03-08T10:50:34;9.82;;;5.78;;
25299;SDS011;13241;51.208;4.432;2024-03-08T10:53:02;10.85;;;6.30;;
25299;SDS011;13241;51.208;4.432;2024-03-08T10:55:30;11.65;;;6.22;;
25299;SDS011;13241;51.208;4.432;2024-03-08T10:57:59;14.77;;;5.93;;
25299;SDS011;13241;51.208;4.432;2024-03-08T11:00:27;11.40;;;5.85;;
25299;SDS011;13241;51.208;4.432;2024-03-08T11:02:54;14.35;;;6.53;;
25299;SDS011;13241;51.208;4.432;2024-03-08T11:05:32;12.82;;;6.07;;
25299;SDS011;13241;51.208;4.432;2024-03-08T11:10:52;16.25;;;6.10;;
25299;SDS011;13241;51.208;4.432;2024-03-08T11:13:34;10.98;;;6.03;;
25299;SDS011;13241;51.208;4.432;2024-03-08T11:16:36;12.40;;;6.97;;
25299;SDS011;13241;51.208;4.432;2024-03-08T11:19:23;13.35;;;5.72;;
25299;SDS011;13241;51.208;4.432;2024-03-08T11:22:00;13.30;;;5.53;;
25299;SDS011;13241;51.208;4.432;2024-03-08T11:24:27;11.45;;;6.28;;
25299;SDS011;13241;51.208;4.432;2024-03-08T11:26:58;10.80;;;5.53;;
25299;SDS011;13241;51.208;4.432;2024-03-08T11:32:09;14.40;;;6.22;;
25299;SDS011;13241;51.208;4.432;2024-03-08T11:34:40;11.38;;;6.03;;
25299;SDS011;13241;51.208;4.432;2024-03-08T11:37:15;13.40;;;5.68;;
25299;SDS011;13241;51.208;4.432;2024-03-08T11:39:47;11.40;;;6.57;;
25299;SDS011;13241;51.208;4.432;2024-03-08T11:42:16;15.60;;;6.68;;
25299;SDS011;13241;51.208;4.432;2024-03-08T11:44:44;12.43;;;7.13;;
25299;SDS011;13241;51.208;4.432;2024-03-08T11:47:11;9.45;;;4.70;;
25299;SDS011;13241;51.208;4.432;2024-03-08T11:49:39;11.18;;;5.13;;
25299;SDS011;13241;51.208;4.432;2024-03-08T11:52:11;9.43;;;5.38;;
25299;SDS011;13241;51.208;4.432;2024-03-08T11:54:41;15.20;;;6.32;;
25299;SDS011;13241;51.208;4.432;2024-03-08T11:57:10;12.93;;;6.13;;
25299;SDS011;13241;51.208;4.432;2024-03-08T11:59:38;10.40;;;5.68;;
25299;SDS011;13241;51.208;4.432;2024-03-08T12:02:06;13.13;;;6.85;;
25299;SDS011;13241;51.208;4.432;2024-03-08T12:04:36;9.43;;;5.85;;
25299;SDS011;13241;51.208;4.432;2024-03-08T12:07:04;15.38;;;6.57;;
25299;SDS011;13241;51.208;4.432;2024-03-08T12:09:35;17.13;;;6.68;;
25299;SDS011;13241;51.208;4.432;2024-03-08T12:12:03;17.20;;;5.75;;
25299;SDS011;13241;51.208;4.432;2024-03-08T12:14:32;12.82;;;5.32;;
25299;SDS011;13241;51.208;4.432;2024-03-08T12:17:00;13.90;;;6.43;;
25299;SDS011;13241;51.208;4.432;2024-03-08T12:19:28;18.25;;;6.47;;
25299;SDS011;13241;51.208;4.432;2024-03-08T12:21:56;11.15;;;6.68;;
25299;SDS011;13241;51.208;4.432;2024-03-08T12:24:23;13.75;;;6.35;;
25299;SDS011;13241;51.208;4.432;2024-03-08T12:26:53;11.48;;;5.68;;
25299;SDS011;13241;51.208;4.432;2024-03-08T12:29:26;17.67;;;6.45;;
25299;SDS011;13241;51.208;4.432;2024-03-08T12:31:55;10.65;;;6.03;;
25299;SDS011;13241;51.208;4.432;2024-03-08T12:34:25;13.43;;;5.90;;
25299;SDS011;13241;51.208;4.432;2024-03-08T12:36:54;14.43;;;7.35;;
25299;SDS011;13241;51.208;4.432;2024-03-08T12:39:22;14.80;;;6.85;;
25299;SDS011;13241;51.208;4.432;2024-03-08T12:41:53;11.80;;;5.60;;
25299;SDS011;13241;51.208;4.432;2024-03-08T12:44:21;9.27;;;5.28;;
25299;SDS011;13241;51.208;4.432;2024-03-08T12:46:48;9.32;;;5.55;;
25299;SDS011;13241;51.208;4.432;2024-03-08T12:49:19;11.82;;;5.63;;
25299;SDS011;13241;51.208;4.432;2024-03-08T12:51:49;13.98;;;5.95;;
25299;SDS011;13241;51.208;4.432;2024-03-08T12:54:18;10.68;;;5.53;;
25299;SDS011;13241;51.208;4.432;2024-03-08T12:56:50;12.55;;;6.28;;
25299;SDS011;13241;51.208;4.432;2024-03-08T12:59:20;12.88;;;6.20;;
25299;SDS011;13241;51.208;4.432;2024-03-08T13:01:48;10.55;;;5.88;;
25299;SDS011;13241;51.208;4.432;2024-03-08T13:04:18;10.60;;;6.20;;
25299;SDS011;13241;51.208;4.432;2024-03-08T13:06:47;14.07;;;5.90;;
25299;SDS011;13241;51.208;4.432;2024-03-08T13:09:20;12.30;;;6.85;;
25299;SDS011;13241;51.208;4.432;2024-03-08T13:11:48;12.82;;;6.38;;
25299;SDS011;13241;51.208;4.432;2024-03-08T13:14:16;18.13;;;6.32;;
25299;SDS011;13241;51.208;4.432;2024-03-08T13:16:43;13.55;;;6.22;;
25299;SDS011;13241;51.208;4.432;2024-03-08T13:19:14;9.45;;;5.80;;
25299;SDS011;13241;51.208;4.432;2024-03-08T13:21:42;17.20;;;7.55;;
25299;SDS011;13241;51.208;4.432;2024-03-08T13:24:15;16.15;;;6.30;;
25299;SDS011;13241;51.208;4.432;2024-03-08T13:26:42;11.40;;;6.93;;
25299;SDS011;13241;51.208;4.432;2024-03-08T13:29:10;17.30;;;7.07;;
25299;SDS011;13241;51.208;4.432;2024-03-08T13:31:38;10.20;;;6.03;;
25299;SDS011;13241;51.208;4.432;2024-03-08T13:34:06;9.95;;;5.30;;
25299;SDS011;13241;51.208;4.432;2024-03-08T13:36:34;20.98;;;7.03;;
25299;SDS011;13241;51.208;4.432;2024-03-08T13:39:08;11.88;;;6.68;;
25299;SDS011;13241;51.208;4.432;2024-03-08T13:41:41;17.15;;;7.78;;
25299;SDS011;13241;51.208;4.432;2024-03-08T13:44:10;13.38;;;6.28;;
25299;SDS011;13241;51.208;4.432;2024-03-08T13:46:38;16.05;;;5.75;;
25299;SDS011;13241;51.208;4.432;2024-03-08T13:49:06;16.15;;;7.05;;
25299;SDS011;13241;51.208;4.432;2024-03-08T13:51:34;11.88;;;6.22;;
25299;SDS011;13241;51.208;4.432;2024-03-08T13:54:02;15.07;;;7.25;;
25299;SDS011;13241;51.208;4.432;2024-03-08T13:56:32;11.27;;;6.40;;
25299;SDS011;13241;51.208;4.432;2024-03-08T13:59:00;14.05;;;6.75;;
25299;SDS011;13241;51.208;4.432;2024-03-08T14:01:28;12.60;;;5.78;;
25299;SDS011;13241;51.208;4.432;2024-03-08T14:03:56;11.82;;;5.53;;
25299;SDS011;13241;51.208;4.432;2024-03-08T14:06:24;11.82;;;6.10;;
25299;SDS011;13241;51.208;4.432;2024-03-08T14:08:51;16.23;;;5.70;;
25299;SDS011;13241;51.208;4.432;2024-03-08T14:11:20;12.80;;;6.38;;
25299;SDS011;13241;51.208;4.432;2024-03-08T14:13:47;14.55;;;5.55;;
25299;SDS011;13241;51.208;4.432;2024-03-08T14:16:15;15.55;;;6.78;;
25299;SDS011;13241;51.208;4.432;2024-03-08T14:18:43;10.82;;;6.28;;
25299;SDS011;13241;51.208;4.432;2024-03-08T14:21:10;10.43;;;5.95;;
25299;SDS011;13241;51.208;4.432;2024-03-08T14:23:40;10.15;;;5.35;;
25299;SDS011;13241;51.208;4.432;2024-03-08T14:26:09;13.27;;;6.53;;
25299;SDS011;13241;51.208;4.432;2024-03-08T14:28:37;15.50;;;6.35;;
25299;SDS011;13241;51.208;4.432;2024-03-08T14:31:05;11.23;;;5.97;;
25299;SDS011;13241;51.208;4.432;2024-03-08T14:33:37;11.40;;;6.03;;
25299;SDS011;13241;51.208;4.432;2024-03-08T14:36:04;9.80;;;5.22;;
25299;SDS011;13241;51.208;4.432;2024-03-08T14:38:32;15.48;;;5.97;;
25299;SDS011;13241;51.208;4.432;2024-03-08T14:41:01;14.98;;;6.07;;
25299;SDS011;13241;51.208;4.432;2024-03-08T14:43:30;13.57;;;6.07;;
25299;SDS011;13241;51.208;4.432;2024-03-08T14:45:58;13.48;;;5.32;;
25299;SDS011;13241;51.208;4.432;2024-03-08T14:48:26;11.63;;;5.95;;
25299;SDS011;13241;51.208;4.432;2024-03-08T14:50:53;15.85;;;6.20;;
25299;SDS011;13241;51.208;4.432;2024-03-08T14:53:20;18.35;;;5.88;;